This is the latest recevied weather packets stored in our database for station/object KP4DJT. If no packets are shown the sender has not sent any weather packets the latest 10 day(s).
| Time | Temp. | Humidity | Pressure | Rain* | Wind** | Luminosity | Snow |
|---|---|---|---|---|---|---|---|
| 1777330938 | 27.78° C | 42% | 1007.2 hPa | 0 mm | - | 338 W/m² | - |
| 1777329138 | 27.78° C | 38% | 1006.9 hPa | 0 mm | - | 443 W/m² | - |
| 1777323739 | 27.22° C | 46% | 1006.5 hPa | 0 mm | - | 713 W/m² | - |
| 1777322539 | 27.78° C | 46% | 1006.5 hPa | 0 mm | - | 758 W/m² | - |
| 1777303941 | 24.44° C | 56% | 1005.1 hPa | 0 mm | - | 615 W/m² | - |
| 1777303338 | 24.44° C | 56% | 1004.9 hPa | 0 mm | - | 588 W/m² | - |
| 1777297339 | 23.89° C | 78% | 1004.2 hPa | 0 mm | - | 244 W/m² | - |
| 1777296139 | 23.33° C | 80% | 1003.9 hPa | 0 mm | - | 181 W/m² | - |
| 1777288938 | 23.33° C | 83% | 1001.7 hPa | 0 mm | - | 0 W/m² | - |
| 1777284738 | 23.33° C | 83% | 1001.3 hPa | 0 mm | - | 0 W/m² | - |
| 1777282339 | 23.89° C | 83% | 1001.2 hPa | 0 mm | - | 0 W/m² | - |
| 1777278740 | 23.89° C | 82% | 1001.1 hPa | 0 mm | - | 0 W/m² | - |
| 1777275741 | 23.89° C | 82% | 1001.8 hPa | 0 mm | - | 0 W/m² | - |
| 1777275138 | 23.89° C | 82% | 1001.8 hPa | 0 mm | - | 0 W/m² | - |
| 1777273338 | 23.89° C | 82% | 1001.6 hPa | 0 mm | - | 0 W/m² | - |
| 1777272138 | 23.89° C | 82% | 1001.4 hPa | 0 mm | - | 0 W/m² | - |
| 1777271539 | 24.44° C | 82% | 1001.9 hPa | 0 mm | - | 0 W/m² | - |
| 1777269739 | 24.44° C | 81% | 1001.7 hPa | 0 mm | - | 0 W/m² | - |
| 1777268539 | 24.44° C | 82% | 1001.7 hPa | 0 mm | - | 0 W/m² | - |
| 1777265540 | 24.44° C | 81% | 1002.5 hPa | 0 mm | - | 0 W/m² | - |
| 1777264940 | 24.44° C | 81% | 1002.7 hPa | 0 mm | - | 0 W/m² | - |
| 1777261940 | 24.44° C | 81% | 1002.8 hPa | 0 mm | - | 0 W/m² | - |
| 1777255339 | 25.56° C | 74% | 1002.4 hPa | 0 mm | - | 0 W/m² | - |
| 1777248761 | 27.78° C | 63% | 1002.5 hPa | 0 mm | - | 92 W/m² | - |
| 1777247538 | 28.33° C | 63% | 1002.5 hPa | 0 mm | - | 159 W/m² | - |
* Rain latest hour (hover to see other rain measurements)
** Current wind speed in m/s (hover to see current wind gust speed)